METAR Data
IDs: Format: Raw Decoded Include TAF

Data at: 2203 UTC 01 Dec 2021

KLNK 012154Z 24013KT 10SM CLR 19/M01 A2987 RMK AO2 SLP112 T01891006